createdAt,value
2019-01-14T00:00:05.083Z,7.27
2019-01-14T00:02:33.630Z,6.90
2019-01-14T00:05:02.174Z,7.00
2019-01-14T00:07:30.746Z,7.20
2019-01-14T00:09:59.300Z,6.50
2019-01-14T00:12:27.850Z,6.23
2019-01-14T00:14:56.418Z,6.20
2019-01-14T00:17:25.047Z,6.50
2019-01-14T00:19:53.606Z,6.77
2019-01-14T00:22:22.153Z,7.30
2019-01-14T00:24:50.710Z,5.67
2019-01-14T00:27:19.253Z,6.50
2019-01-14T00:29:47.806Z,7.30
2019-01-14T00:32:16.381Z,5.97
2019-01-14T00:34:44.946Z,5.30
2019-01-14T00:37:13.486Z,6.80
2019-01-14T00:39:42.065Z,6.93
2019-01-14T00:42:10.639Z,7.30
2019-01-14T00:44:39.196Z,6.30
2019-01-14T00:47:07.770Z,6.27
2019-01-14T00:49:36.309Z,6.43
2019-01-14T00:52:04.862Z,6.30
2019-01-14T00:54:33.418Z,5.90
2019-01-14T00:57:01.974Z,6.13
2019-01-14T00:59:30.557Z,6.50
2019-01-14T01:01:59.099Z,5.70
2019-01-14T01:04:27.647Z,6.43
2019-01-14T01:06:56.236Z,6.80
2019-01-14T01:09:24.803Z,6.00
2019-01-14T01:11:53.350Z,5.17
2019-01-14T01:14:21.946Z,5.93
2019-01-14T01:16:50.563Z,6.73
2019-01-14T01:19:19.191Z,6.73
2019-01-14T01:21:47.762Z,6.07
2019-01-14T01:24:16.317Z,4.47
2019-01-14T01:26:44.861Z,5.70
2019-01-14T01:29:13.441Z,4.73
2019-01-14T01:31:41.997Z,5.43
2019-01-14T01:34:10.551Z,7.07
2019-01-14T01:36:39.122Z,6.33
2019-01-14T01:39:07.788Z,6.30
2019-01-14T01:41:36.381Z,6.40
2019-01-14T01:44:04.939Z,5.40
2019-01-14T01:46:33.469Z,7.00
2019-01-14T01:49:02.062Z,5.20
2019-01-14T01:51:30.604Z,5.73
2019-01-14T01:53:59.150Z,5.80
2019-01-14T01:56:27.715Z,6.73
2019-01-14T01:58:56.412Z,6.23
2019-01-14T02:01:24.956Z,7.00
2019-01-14T02:03:53.526Z,5.33
2019-01-14T02:06:22.076Z,5.73
2019-01-14T02:08:50.627Z,5.57
2019-01-14T02:11:19.191Z,6.03
2019-01-14T02:13:48.346Z,5.53
2019-01-14T02:16:16.914Z,5.07
2019-01-14T02:18:45.474Z,5.03
2019-01-14T02:21:14.081Z,6.00
2019-01-14T02:23:42.629Z,5.63
2019-01-14T02:26:11.196Z,6.10
2019-01-14T02:28:39.744Z,5.20
2019-01-14T02:31:08.292Z,5.90
2019-01-14T02:33:36.981Z,6.50
2019-01-14T02:36:05.730Z,6.87
2019-01-14T02:38:34.276Z,5.80
2019-01-14T02:41:02.871Z,6.13
2019-01-14T02:43:31.451Z,6.37
2019-01-14T02:45:59.994Z,6.00
2019-01-14T02:48:28.561Z,5.90
2019-01-14T02:50:57.101Z,5.70
2019-01-14T02:53:25.651Z,6.77
2019-01-14T02:55:54.223Z,5.20
2019-01-14T02:58:22.783Z,5.53
2019-01-14T03:00:51.338Z,6.17
2019-01-14T03:03:19.953Z,5.80
2019-01-14T03:05:48.502Z,5.30
2019-01-14T03:08:17.050Z,5.60
2019-01-14T03:10:45.628Z,5.23
2019-01-14T03:13:15.866Z,7.23
2019-01-14T03:15:44.605Z,7.30
2019-01-14T03:18:13.203Z,5.27
2019-01-14T03:20:41.743Z,5.30
2019-01-14T03:23:10.311Z,6.60
2019-01-14T03:25:38.876Z,6.37
2019-01-14T03:28:07.443Z,5.50
2019-01-14T03:30:35.983Z,5.70
2019-01-14T03:33:04.534Z,6.60
2019-01-14T03:35:33.104Z,6.10
2019-01-14T03:38:01.646Z,5.50
2019-01-14T03:40:30.194Z,5.53
2019-01-14T03:42:58.774Z,6.43
2019-01-14T03:45:27.359Z,5.87
2019-01-14T03:47:55.894Z,5.53
2019-01-14T03:50:24.606Z,6.97
2019-01-14T03:52:53.148Z,6.50
2019-01-14T03:55:21.766Z,5.20
2019-01-14T03:57:50.665Z,5.43
2019-01-14T04:00:19.217Z,5.97
2019-01-14T04:02:47.765Z,5.70
2019-01-14T04:05:16.331Z,5.03
2019-01-14T04:07:44.880Z,5.47
2019-01-14T04:10:14.220Z,5.60
2019-01-14T04:12:42.781Z,5.90
2019-01-14T04:15:11.896Z,4.97
2019-01-14T04:17:40.517Z,5.70
2019-01-14T04:20:09.377Z,5.60
2019-01-14T04:22:37.917Z,5.53
2019-01-14T04:25:06.502Z,4.73
2019-01-14T04:27:35.073Z,5.00
2019-01-14T04:30:03.660Z,4.47
2019-01-14T04:32:32.211Z,3.80
2019-01-14T04:35:00.774Z,4.50
2019-01-14T04:37:29.318Z,4.73
2019-01-14T04:40:17.229Z,4.77
2019-01-14T04:42:45.798Z,5.13
2019-01-14T04:45:14.437Z,5.73
2019-01-14T04:47:43.169Z,5.33
2019-01-14T04:50:12.649Z,5.90
2019-01-14T04:52:41.201Z,6.10
2019-01-14T04:55:09.771Z,6.70
2019-01-14T04:57:38.315Z,5.77
2019-01-14T05:00:09.349Z,5.63
2019-01-14T05:02:37.909Z,5.07
2019-01-14T05:05:06.598Z,5.27
2019-01-14T05:07:35.143Z,4.57
2019-01-14T05:10:03.946Z,4.03
2019-01-14T05:12:32.490Z,4.40
2019-01-14T05:15:01.031Z,4.33
2019-01-14T05:17:29.742Z,5.00
2019-01-14T05:19:58.297Z,4.87
2019-01-14T05:22:26.838Z,6.03
2019-01-14T05:24:55.419Z,5.20
2019-01-14T05:27:23.963Z,5.27
2019-01-14T05:29:52.504Z,5.40
2019-01-14T05:32:21.069Z,4.97
2019-01-14T05:34:49.635Z,4.50
2019-01-14T05:37:18.201Z,4.30
2019-01-14T05:39:46.763Z,4.93
2019-01-14T05:42:15.327Z,3.60
2019-01-14T05:44:45.457Z,3.10
2019-01-14T05:47:13.931Z,3.20
2019-01-14T05:49:42.481Z,3.30
2019-01-14T05:52:11.169Z,2.90
2019-01-14T05:54:39.731Z,3.70
2019-01-14T05:57:08.276Z,3.40
2019-01-14T05:59:36.841Z,4.10
2019-01-14T06:02:05.402Z,3.63
2019-01-14T06:04:33.956Z,3.67
2019-01-14T06:07:02.542Z,4.00
2019-01-14T06:09:31.108Z,4.07
2019-01-14T06:11:59.679Z,4.03
2019-01-14T06:14:28.254Z,4.33
2019-01-14T06:16:56.802Z,5.60
2019-01-14T06:19:26.138Z,4.47
2019-01-14T06:21:54.693Z,3.80
2019-01-14T06:24:23.229Z,4.03
2019-01-14T06:26:51.770Z,3.47
2019-01-14T06:29:20.338Z,4.40
2019-01-14T06:31:49.207Z,4.40
2019-01-14T06:34:17.758Z,4.53
2019-01-14T06:36:46.315Z,5.03
2019-01-14T06:39:14.882Z,3.83
2019-01-14T06:41:43.474Z,5.17
2019-01-14T06:44:12.025Z,3.97
2019-01-14T06:46:40.590Z,3.40
2019-01-14T06:49:09.154Z,3.97
2019-01-14T06:51:37.715Z,3.13
2019-01-14T06:54:06.297Z,3.33
2019-01-14T06:56:34.840Z,3.13
2019-01-14T06:59:03.388Z,3.33
2019-01-14T07:01:31.943Z,4.20
2019-01-14T07:04:00.522Z,3.67
2019-01-14T07:06:29.096Z,3.50
2019-01-14T07:08:57.646Z,3.17
2019-01-14T07:11:26.203Z,3.83
2019-01-14T07:13:54.771Z,3.57
2019-01-14T07:16:23.337Z,3.93
2019-01-14T07:18:51.894Z,4.17
2019-01-14T07:21:20.451Z,3.60
2019-01-14T07:23:49.018Z,3.97
2019-01-14T07:26:17.570Z,4.87
2019-01-14T07:28:46.134Z,3.50
2019-01-14T07:31:14.699Z,4.07
2019-01-14T07:33:43.243Z,4.27
2019-01-14T07:36:11.790Z,3.93
2019-01-14T07:38:40.503Z,5.00
2019-01-14T07:41:09.054Z,4.63
2019-01-14T07:43:37.675Z,4.53
2019-01-14T07:46:06.301Z,4.83
2019-01-14T07:48:34.856Z,5.33
2019-01-14T07:51:03.402Z,5.90
2019-01-14T07:53:31.986Z,4.80
2019-01-14T07:56:00.622Z,3.93
2019-01-14T07:58:29.179Z,3.97
2019-01-14T08:00:57.741Z,4.63
2019-01-14T08:03:27.136Z,4.23
2019-01-14T08:05:55.823Z,3.63
2019-01-14T08:08:24.463Z,4.03
2019-01-14T08:10:53.013Z,4.20
2019-01-14T08:13:21.550Z,4.33
2019-01-14T08:15:50.124Z,3.20
2019-01-14T08:18:18.661Z,4.43
2019-01-14T08:20:47.212Z,4.20
2019-01-14T08:23:15.775Z,4.60
2019-01-14T08:25:44.326Z,4.60
2019-01-14T08:28:12.874Z,4.37
2019-01-14T08:30:41.451Z,4.43
2019-01-14T08:33:10.035Z,3.37
2019-01-14T08:35:38.577Z,4.23
2019-01-14T08:38:07.176Z,4.13
2019-01-14T08:40:35.723Z,4.03
2019-01-14T08:43:04.294Z,4.50
2019-01-14T08:45:32.860Z,3.83
2019-01-14T08:48:02.966Z,3.77
2019-01-14T08:50:31.510Z,3.40
2019-01-14T08:53:00.075Z,3.80
2019-01-14T08:55:28.625Z,3.50
2019-01-14T08:57:57.175Z,3.40
2019-01-14T09:00:25.739Z,3.10
2019-01-14T09:02:54.323Z,4.00
2019-01-14T09:05:22.964Z,3.20
2019-01-14T09:07:51.537Z,3.50
2019-01-14T09:10:21.324Z,3.43
2019-01-14T09:12:49.866Z,3.60
2019-01-14T09:15:18.455Z,4.20
2019-01-14T09:17:47.005Z,3.70
2019-01-14T09:20:16.572Z,4.17
2019-01-14T09:22:45.147Z,4.40
2019-01-14T09:25:13.730Z,3.67
2019-01-14T09:27:42.291Z,3.40
2019-01-14T09:30:15.270Z,2.90
2019-01-14T09:32:43.966Z,3.13
2019-01-14T09:35:12.525Z,3.17
2019-01-14T09:37:41.104Z,3.67
2019-01-14T09:40:10.806Z,3.27
2019-01-14T09:42:39.390Z,4.27
2019-01-14T09:45:07.955Z,3.20
2019-01-14T09:47:36.511Z,3.50
2019-01-14T09:50:05.638Z,3.77
2019-01-14T09:52:34.214Z,3.00
2019-01-14T09:55:05.764Z,2.83
2019-01-14T09:57:33.033Z,3.13
2019-01-14T10:00:01.627Z,4.07
2019-01-14T10:02:30.175Z,3.37
2019-01-14T10:04:58.720Z,3.53
2019-01-14T10:07:27.325Z,3.77
2019-01-14T10:09:55.849Z,3.10
2019-01-14T10:12:24.433Z,3.67
2019-01-14T10:14:53.113Z,3.20
2019-01-14T10:17:25.839Z,2.80
2019-01-14T10:19:54.555Z,2.63
2019-01-14T10:22:23.138Z,3.10
2019-01-14T10:24:51.703Z,3.20
2019-01-14T10:27:20.295Z,2.77
2019-01-14T10:29:48.865Z,3.70
2019-01-14T10:32:17.405Z,2.97
2019-01-14T10:34:45.953Z,2.87
2019-01-14T10:37:14.563Z,3.40
2019-01-14T10:39:43.193Z,3.50
2019-01-14T10:42:11.784Z,3.20
2019-01-14T10:44:40.343Z,3.17
2019-01-14T10:47:08.884Z,2.90
2019-01-14T10:49:37.427Z,2.70
2019-01-14T10:52:06.010Z,2.73
2019-01-14T10:54:34.550Z,3.63
2019-01-14T10:57:03.114Z,3.10
2019-01-14T10:59:31.665Z,3.00
2019-01-14T11:02:00.139Z,2.90
2019-01-14T11:04:28.686Z,2.53
2019-01-14T11:06:57.240Z,3.00
2019-01-14T11:09:25.863Z,3.10
2019-01-14T11:11:54.402Z,4.37
2019-01-14T11:14:22.954Z,3.17
2019-01-14T11:16:51.546Z,3.20
2019-01-14T11:19:20.141Z,2.57
2019-01-14T11:21:48.705Z,2.80
2019-01-14T11:24:17.264Z,2.80
2019-01-14T11:26:45.822Z,3.00
2019-01-14T11:29:14.417Z,3.07
2019-01-14T11:31:42.982Z,3.13
2019-01-14T11:34:11.546Z,3.27
2019-01-14T11:36:40.088Z,3.33
2019-01-14T11:39:14.861Z,2.47
2019-01-14T11:41:43.405Z,3.37
2019-01-14T11:44:11.947Z,3.00
2019-01-14T11:46:40.504Z,2.70
2019-01-14T11:49:09.046Z,3.17
2019-01-14T11:51:37.587Z,3.53
2019-01-14T11:54:06.143Z,3.23
2019-01-14T11:56:34.795Z,3.93
2019-01-14T11:59:03.342Z,3.07
2019-01-14T12:01:31.902Z,2.53
2019-01-14T12:04:00.463Z,2.70
2019-01-14T12:06:29.026Z,2.90
2019-01-14T12:08:57.643Z,2.90
2019-01-14T12:11:26.226Z,2.60
2019-01-14T12:13:54.770Z,2.93
2019-01-14T12:16:23.343Z,3.10
2019-01-14T12:18:51.882Z,2.90
2019-01-14T12:21:20.426Z,3.17
2019-01-14T12:23:48.986Z,4.23
2019-01-14T12:26:17.530Z,3.40
2019-01-14T12:28:46.083Z,3.27
2019-01-14T12:31:14.642Z,3.40
2019-01-14T12:33:43.203Z,2.63
2019-01-14T12:36:11.807Z,3.23
2019-01-14T12:38:40.391Z,3.57
2019-01-14T12:41:08.926Z,4.13
2019-01-14T12:43:37.482Z,3.80
2019-01-14T12:46:06.046Z,4.43
2019-01-14T12:48:34.594Z,3.67
2019-01-14T12:51:03.144Z,3.60
2019-01-14T12:53:31.709Z,4.07
2019-01-14T12:56:00.277Z,3.27
2019-01-14T12:58:28.822Z,3.20
2019-01-14T13:00:57.378Z,3.40
2019-01-14T13:03:25.950Z,3.53
2019-01-14T13:05:54.517Z,3.70
2019-01-14T13:08:23.067Z,3.50
2019-01-14T13:10:51.633Z,3.60
2019-01-14T13:13:20.228Z,3.70
2019-01-14T13:15:48.764Z,3.43
2019-01-14T13:18:17.338Z,3.77
2019-01-14T13:20:45.891Z,4.53
2019-01-14T13:23:14.453Z,4.00
2019-01-14T13:25:43.045Z,3.13
2019-01-14T13:28:11.594Z,3.90
2019-01-14T13:30:40.150Z,4.13
2019-01-14T13:33:08.727Z,3.23
2019-01-14T13:35:37.267Z,3.60
2019-01-14T13:38:05.826Z,3.40
2019-01-14T13:40:34.476Z,2.83
2019-01-14T13:43:03.027Z,3.20
2019-01-14T13:45:31.577Z,3.50
2019-01-14T13:48:00.197Z,3.67
2019-01-14T13:50:28.780Z,2.97
2019-01-14T13:52:57.327Z,4.27
2019-01-14T13:55:25.893Z,3.50
2019-01-14T13:57:54.453Z,3.93
2019-01-14T14:00:23.854Z,3.77
2019-01-14T14:02:52.598Z,3.50
2019-01-14T14:05:21.254Z,3.83
2019-01-14T14:07:50.137Z,3.70
2019-01-14T14:10:19.870Z,5.60
2019-01-14T14:12:48.518Z,3.70
2019-01-14T14:15:17.047Z,4.00
2019-01-14T14:17:45.689Z,3.23
2019-01-14T14:20:14.520Z,3.80
2019-01-14T14:22:43.085Z,3.63
2019-01-14T14:25:11.667Z,3.80
2019-01-14T14:27:40.228Z,2.93
2019-01-14T14:30:24.740Z,2.90
2019-01-14T14:32:53.324Z,3.70
2019-01-14T14:35:21.875Z,2.97
2019-01-14T14:37:50.460Z,3.37
2019-01-14T14:40:19.014Z,4.07
2019-01-14T14:42:47.478Z,3.50
2019-01-14T14:45:16.018Z,3.40
2019-01-14T14:47:44.608Z,2.97
2019-01-14T14:50:13.844Z,4.40
2019-01-14T14:52:42.403Z,3.93
2019-01-14T14:55:11.096Z,3.50
2019-01-14T14:57:39.639Z,3.60
2019-01-14T15:00:10.662Z,3.20
2019-01-14T15:02:39.228Z,3.80
2019-01-14T15:05:07.823Z,3.40
2019-01-14T15:07:36.373Z,2.93
2019-01-14T15:10:05.492Z,3.70
2019-01-14T15:12:34.090Z,3.53
2019-01-14T15:15:02.708Z,3.00
2019-01-14T15:17:31.267Z,3.73
2019-01-14T15:19:59.860Z,3.23
2019-01-14T15:22:28.408Z,3.53
2019-01-14T15:24:56.979Z,3.40
2019-01-14T15:27:25.558Z,3.23
2019-01-14T15:29:54.122Z,2.93
2019-01-14T15:32:22.695Z,3.50
2019-01-14T15:34:51.260Z,3.60
2019-01-14T15:37:19.808Z,3.50
2019-01-14T15:39:48.382Z,3.70
2019-01-14T15:42:16.946Z,3.67
2019-01-14T15:44:45.496Z,3.70
2019-01-14T15:47:14.094Z,3.70
2019-01-14T15:49:42.644Z,4.27
2019-01-14T15:52:11.244Z,3.60
2019-01-14T15:54:39.812Z,3.80
2019-01-14T15:57:08.378Z,3.13
2019-01-14T15:59:36.918Z,3.90
2019-01-14T16:02:05.506Z,4.10
2019-01-14T16:04:34.078Z,4.60
2019-01-14T16:07:02.638Z,4.17
2019-01-14T16:09:31.209Z,3.43
2019-01-14T16:11:59.794Z,3.50
2019-01-14T16:14:28.498Z,3.47
2019-01-14T16:16:57.179Z,3.37
2019-01-14T16:19:25.751Z,3.40
2019-01-14T16:21:54.370Z,3.60
2019-01-14T16:24:22.963Z,3.50
2019-01-14T16:26:51.546Z,4.43
2019-01-14T16:29:20.100Z,2.93
2019-01-14T16:31:48.691Z,3.77
2019-01-14T16:34:17.250Z,3.57
2019-01-14T16:36:45.807Z,4.10
2019-01-14T16:39:14.414Z,3.10
2019-01-14T16:41:42.970Z,4.27
2019-01-14T16:44:11.566Z,3.57
2019-01-14T16:46:40.250Z,3.37
2019-01-14T16:49:10.861Z,3.40
2019-01-14T16:51:39.563Z,3.10
2019-01-14T16:54:08.134Z,3.70
2019-01-14T16:56:36.696Z,3.20
2019-01-14T16:59:05.281Z,3.17
2019-01-14T17:01:33.858Z,3.87
2019-01-14T17:04:02.431Z,3.93
2019-01-14T17:06:31.001Z,3.77
2019-01-14T17:08:59.595Z,3.60
2019-01-14T17:11:28.145Z,3.93
2019-01-14T17:13:56.734Z,4.17
2019-01-14T17:16:25.315Z,3.97
2019-01-14T17:18:53.876Z,3.53
2019-01-14T17:21:22.458Z,3.73
2019-01-14T17:24:10.186Z,3.73
2019-01-14T17:26:38.825Z,3.93
2019-01-14T17:29:07.375Z,3.93
2019-01-14T17:31:36.030Z,4.40
2019-01-14T17:34:04.594Z,3.70
2019-01-14T17:36:33.141Z,4.10
2019-01-14T17:39:01.698Z,3.67
2019-01-14T17:41:30.381Z,4.00
2019-01-14T17:43:58.925Z,3.63
2019-01-14T17:46:27.475Z,3.80
2019-01-14T17:48:56.046Z,3.47
2019-01-14T17:51:24.592Z,3.90
2019-01-14T17:53:53.157Z,3.77
2019-01-14T17:56:21.730Z,3.23
2019-01-14T17:58:50.271Z,3.97
2019-01-14T18:01:18.830Z,3.90
2019-01-14T18:03:47.398Z,3.77
2019-01-14T18:06:15.975Z,4.40
2019-01-14T18:08:44.535Z,3.63
2019-01-14T18:11:13.097Z,4.43
2019-01-14T18:13:41.661Z,3.93
2019-01-14T18:16:10.226Z,3.40
2019-01-14T18:18:38.798Z,3.07
2019-01-14T18:21:13.902Z,3.40
2019-01-14T18:23:38.962Z,2.60
2019-01-14T18:26:07.538Z,3.33
2019-01-14T18:28:36.122Z,3.07
2019-01-14T18:31:04.700Z,3.07
2019-01-14T18:33:33.280Z,3.60
2019-01-14T18:36:01.839Z,3.60
2019-01-14T18:38:30.391Z,3.37
2019-01-14T18:40:59.004Z,3.63
2019-01-14T18:43:27.567Z,4.83
2019-01-14T18:45:56.181Z,3.73
2019-01-14T18:48:24.750Z,4.10
2019-01-14T18:50:53.321Z,4.60
2019-01-14T18:53:21.995Z,4.60
2019-01-14T18:55:50.630Z,4.33
2019-01-14T18:58:19.208Z,4.00
2019-01-14T19:00:47.751Z,4.03
2019-01-14T19:03:16.343Z,4.80
2019-01-14T19:05:44.879Z,5.00
2019-01-14T19:08:13.434Z,6.97
2019-01-14T19:10:42.014Z,4.77
2019-01-14T19:13:10.580Z,5.13
2019-01-14T19:15:39.112Z,5.00
2019-01-14T19:18:07.686Z,4.73
2019-01-14T19:20:36.260Z,4.60
2019-01-14T19:23:04.831Z,4.33
2019-01-14T19:25:33.416Z,4.07
2019-01-14T19:28:02.084Z,3.63
2019-01-14T19:30:30.701Z,3.90
2019-01-14T19:32:59.258Z,5.87
2019-01-14T19:35:27.810Z,3.80
2019-01-14T19:37:56.363Z,4.40
2019-01-14T19:40:24.922Z,4.87
2019-01-14T19:42:53.478Z,5.67
2019-01-14T19:45:22.081Z,4.40
2019-01-14T19:47:50.641Z,5.30
2019-01-14T19:50:22.942Z,5.20
2019-01-14T19:52:51.547Z,5.90
2019-01-14T19:55:20.095Z,4.40
2019-01-14T19:57:48.676Z,4.50
2019-01-14T20:00:18.558Z,5.40
2019-01-14T20:02:47.122Z,4.33
2019-01-14T20:05:15.716Z,4.17
2019-01-14T20:07:44.362Z,3.73
2019-01-14T20:10:13.271Z,5.07
2019-01-14T20:12:41.866Z,4.40
2019-01-14T20:15:11.236Z,4.33
2019-01-14T20:17:39.779Z,5.07
2019-01-14T20:20:08.531Z,4.40
2019-01-14T20:22:37.119Z,4.00
2019-01-14T20:25:06.154Z,3.60
2019-01-14T20:27:34.744Z,3.30
2019-01-14T20:30:03.518Z,3.53
2019-01-14T20:32:32.090Z,3.20
2019-01-14T20:35:00.656Z,4.17
2019-01-14T20:37:29.307Z,3.33
2019-01-14T20:39:57.863Z,3.20
2019-01-14T20:42:26.406Z,3.43
2019-01-14T20:44:55.024Z,4.40
2019-01-14T20:47:23.646Z,4.47
2019-01-14T20:49:52.312Z,3.57
2019-01-14T20:52:20.906Z,4.00
2019-01-14T20:54:49.470Z,4.17
2019-01-14T20:57:18.031Z,4.87
2019-01-14T20:59:46.616Z,3.73
2019-01-14T21:02:15.185Z,4.10
2019-01-14T21:04:43.861Z,4.90
2019-01-14T21:07:12.513Z,3.77
2019-01-14T21:09:41.146Z,4.13
2019-01-14T21:12:09.772Z,4.57
2019-01-14T21:14:38.396Z,5.20
2019-01-14T21:17:07.008Z,4.13
2019-01-14T21:19:35.593Z,4.57
2019-01-14T21:22:04.176Z,4.10
2019-01-14T21:24:32.734Z,4.73
2019-01-14T21:27:01.372Z,4.07
2019-01-14T21:29:30.978Z,4.57
2019-01-14T21:31:59.527Z,3.83
2019-01-14T21:34:28.090Z,3.70
2019-01-14T21:36:56.690Z,4.07
2019-01-14T21:39:25.271Z,3.80
2019-01-14T21:41:53.815Z,3.93
2019-01-14T21:44:22.443Z,4.40
2019-01-14T21:46:51.014Z,3.90
2019-01-14T21:49:19.605Z,3.83
2019-01-14T21:51:48.162Z,3.90
2019-01-14T21:54:16.752Z,4.53
2019-01-14T21:56:45.398Z,4.23
2019-01-14T21:59:14.099Z,3.70
2019-01-14T22:01:42.706Z,4.57
2019-01-14T22:04:11.311Z,3.33
2019-01-14T22:06:39.876Z,4.03
2019-01-14T22:09:08.619Z,3.20
2019-01-14T22:11:38.729Z,3.30
2019-01-14T22:14:07.642Z,3.90
2019-01-14T22:16:36.216Z,3.40
2019-01-14T22:19:04.758Z,3.20
2019-01-14T22:21:33.353Z,4.00
2019-01-14T22:24:01.900Z,3.23
2019-01-14T22:26:30.441Z,3.50
2019-01-14T22:28:59.011Z,4.33
2019-01-14T22:31:27.745Z,4.20
2019-01-14T22:33:56.294Z,3.23
2019-01-14T22:36:24.853Z,4.10
2019-01-14T22:38:53.411Z,3.60
2019-01-14T22:41:21.943Z,3.53
2019-01-14T22:43:50.535Z,3.70
2019-01-14T22:46:19.071Z,3.23
2019-01-14T22:48:47.634Z,3.63
2019-01-14T22:51:16.216Z,3.90
2019-01-14T22:53:44.798Z,3.00
2019-01-14T22:56:13.374Z,3.60
2019-01-14T22:58:41.943Z,4.00
2019-01-14T23:01:19.586Z,4.10
2019-01-14T23:03:48.987Z,3.40
2019-01-14T23:06:17.555Z,3.20
2019-01-14T23:08:46.107Z,3.57
2019-01-14T23:11:14.662Z,4.23
2019-01-14T23:13:43.203Z,3.57
2019-01-14T23:16:11.759Z,4.10
2019-01-14T23:18:40.338Z,3.77
2019-01-14T23:21:08.887Z,4.20
2019-01-14T23:23:37.496Z,3.90
2019-01-14T23:26:06.106Z,4.20
2019-01-14T23:28:34.651Z,3.50
2019-01-14T23:31:03.191Z,3.67
2019-01-14T23:33:31.756Z,3.53
2019-01-14T23:36:00.299Z,3.97
2019-01-14T23:38:28.847Z,4.23
2019-01-14T23:40:57.417Z,4.93
2019-01-14T23:43:25.952Z,3.67
2019-01-14T23:45:54.494Z,4.03
2019-01-14T23:48:23.056Z,4.27
2019-01-14T23:50:51.610Z,3.47
2019-01-14T23:53:20.161Z,2.90
2019-01-14T23:55:48.738Z,3.10
2019-01-14T23:58:17.282Z,3.27
